Time;durP1;ratioP1;P1;durP2;ratioP2;P2;SDS_P1;SDS_P2;PMS_P1;PMS_P2;Temp;Humidity;BMP_temperature;BMP_pressure;BME280_temperature;BME280_humidity;BME280_pressure;Samples;Min_cycle;Max_cycle;Signal;HPM_P1;HPM_P2
2022/12/12 00:00:13;;;;;;;44.03;21.88;;;;;;;0.61;77.84;98920.19;343511;28;1067;-70
2022/12/12 00:00:25;;;;;;;44.28;22.17;;;;;;;0.59;77.88;98927.88;344937;28;1403;-70
2022/12/12 00:00:41;;;;;;;42.10;21.75;;;;;;;0.54;77.95;98924.47;344996;28;1109;-70
2022/12/12 00:00:53;;;;;;;41.47;21.65;;;;;;;0.49;77.66;98921.94;344789;28;2019;-70
2022/12/12 00:01:23;;;;;;;41.78;21.33;;;;;;;0.54;78.06;98924.47;343495;28;1058;-70
2022/12/12 00:01:39;;;;;;;44.25;21.42;;;;;;;0.62;77.60;98927.84;344540;28;1025;-69
2022/12/12 00:01:53;;;;;;;42.15;21.55;;;;;;;0.59;77.61;98927.88;343760;28;1294;-70
2022/12/12 00:02:05;;;;;;;40.90;21.73;;;;;;;0.58;78.17;98924.47;343736;28;1019;-72
2022/12/12 00:02:18;;;;;;;40.00;21.00;;;;;;;0.60;77.89;98929.56;343689;28;1357;-72
2022/12/12 00:02:30;;;;;;;39.60;20.50;;;;;;;0.63;78.25;98932.13;345078;28;1091;-72
2022/12/12 00:02:42;;;;;;;39.97;20.88;;;;;;;0.64;77.77;98926.13;345151;28;1183;-72
2022/12/12 00:02:56;;;;;;;42.55;21.45;;;;;;;0.65;77.44;98927.84;345114;28;1272;-72
2022/12/12 00:03:08;;;;;;;42.75;21.17;;;;;;;0.65;77.89;98921.88;344853;28;1682;-69
2022/12/12 00:03:21;;;;;;;41.05;21.20;;;;;;;0.68;77.64;98929.53;345037;28;1223;-69
2022/12/12 00:03:33;;;;;;;41.90;21.60;;;;;;;0.69;77.43;98929.53;345034;28;1687;-69
2022/12/12 00:03:46;;;;;;;43.20;21.58;;;;;;;0.66;77.79;98924.41;344000;28;1304;-69
2022/12/12 00:03:59;;;;;;;43.83;21.50;;;;;;;0.69;77.59;98929.53;343483;28;1057;-70
2022/12/12 00:04:11;;;;;;;41.83;20.58;;;;;;;0.65;77.21;98921.88;342127;28;1063;-69
2022/12/12 00:04:23;;;;;;;42.40;20.92;;;;;;;0.64;77.41;98931.25;341936;28;1137;-69
2022/12/12 00:04:35;;;;;;;42.47;20.92;;;;;;;0.66;77.87;98924.41;342008;28;1706;-69
2022/12/12 00:04:48;;;;;;;41.00;20.88;;;;;;;0.65;77.71;98927.84;342347;28;1666;-72
2022/12/12 00:04:59;;;;;;;39.50;20.90;;;;;;;0.66;77.78;98929.53;342026;28;1311;-72
2022/12/12 00:05:14;;;;;;;41.72;21.25;;;;;;;0.61;77.41;98926.16;341976;28;1099;-72
2022/12/12 00:05:26;;;;;;;41.58;21.05;;;;;;;0.37;77.76;98922.81;341867;28;1126;-72
2022/12/12 00:05:38;;;;;;;40.28;20.58;;;;;;;0.36;78.48;98926.25;342907;28;1292;-72
2022/12/12 00:05:53;;;;;;;39.33;20.98;;;;;;;0.36;78.02;98926.25;343259;28;1162;-72
2022/12/12 00:06:05;;;;;;;40.85;21.17;;;;;;;0.36;78.13;98926.25;343204;28;899;-69
2022/12/12 00:06:18;;;;;;;41.92;21.25;;;;;;;0.35;78.65;98924.53;344279;28;1339;-70
2022/12/12 00:06:30;;;;;;;41.88;21.27;;;;;;;0.41;79.03;98930.50;344219;28;1151;-69
2022/12/12 00:06:42;;;;;;;42.58;21.55;;;;;;;0.44;79.08;98927.91;344572;28;1146;-69
2022/12/12 00:06:53;;;;;;;44.83;21.77;;;;;;;0.47;78.49;98931.31;344767;28;1094;-69
2022/12/12 00:07:05;;;;;;;42.63;21.25;;;;;;;0.48;78.42;98929.59;345070;28;1054;-69
2022/12/12 00:07:17;;;;;;;38.22;20.38;;;;;;;0.51;78.58;98929.59;344918;28;1175;-69
2022/12/12 00:07:29;;;;;;;39.08;20.58;;;;;;;0.53;78.12;98933.00;345229;28;1061;-69
2022/12/12 00:07:41;;;;;;;39.65;20.92;;;;;;;0.55;78.70;98928.75;345025;28;1153;-72
2022/12/12 00:07:53;;;;;;;40.22;20.83;;;;;;;0.55;78.08;98931.28;344411;28;1797;-72
2022/12/12 00:08:06;;;;;;;38.80;20.58;;;;;;;0.52;78.14;98931.28;346066;28;1521;-72
2022/12/12 00:08:17;;;;;;;39.33;21.10;;;;;;;0.52;78.17;98931.28;345148;28;1307;-72
2022/12/12 00:08:30;;;;;;;42.17;21.80;;;;;;;0.53;77.90;98930.44;344535;28;1060;-72
2022/12/12 00:08:42;;;;;;;42.58;21.98;;;;;;;0.56;77.92;98928.75;344916;28;1283;-72
2022/12/12 00:08:54;;;;;;;44.28;22.17;;;;;;;0.52;78.63;98933.84;344298;28;1785;-71
2022/12/12 00:09:06;;;;;;;45.72;22.33;;;;;;;0.49;77.90;98931.31;346117;28;1071;-72
2022/12/12 00:09:18;;;;;;;44.60;21.90;;;;;;;0.51;78.06;98933.00;345423;28;1433;-70
2022/12/12 00:09:30;;;;;;;44.42;22.23;;;;;;;0.49;78.48;98931.31;344759;28;1262;-69
2022/12/12 00:09:42;;;;;;;41.78;21.50;;;;;;;0.45;78.84;98925.34;343515;28;1775;-69
2022/12/12 00:09:54;;;;;;;41.15;21.35;;;;;;;0.45;78.15;98932.19;342655;28;1311;-69
2022/12/12 00:10:07;;;;;;;39.58;20.98;;;;;;;0.50;77.87;98938.13;344098;28;1008;-69
2022/12/12 00:10:19;;;;;;;42.58;21.08;;;;;;;0.50;78.21;98938.13;342749;28;1779;-69
2022/12/12 00:10:33;;;;;;;43.67;21.55;;;;;;;0.54;78.10;98927.03;341963;28;1111;-69
2022/12/12 00:10:45;;;;;;;45.45;22.58;;;;;;;0.55;78.42;98936.41;342629;28;1059;-72
2022/12/12 00:10:57;;;;;;;44.90;22.70;;;;;;;0.57;77.93;98932.13;343234;28;1031;-72
2022/12/12 00:11:09;;;;;;;42.00;22.23;;;;;;;0.61;78.12;98938.94;343644;28;1814;-72
2022/12/12 00:11:23;;;;;;;42.25;22.00;;;;;;;0.65;78.18;98932.13;343442;28;1365;-72
2022/12/12 00:11:35;;;;;;;43.22;21.77;;;;;;;0.64;77.83;98930.41;345039;28;1731;-72
2022/12/12 00:11:47;;;;;;;43.80;21.73;;;;;;;0.64;78.16;98935.50;346040;28;1114;-72
2022/12/12 00:11:59;;;;;;;42.50;21.38;;;;;;;0.68;77.64;98932.09;345248;28;1050;-70
2022/12/12 00:12:10;;;;;;;42.95;21.50;;;;;;;0.68;77.99;98932.94;345365;28;1906;-69
2022/12/12 00:12:22;;;;;;;42.42;21.65;;;;;;;0.67;77.83;98925.28;344236;28;1851;-69
2022/12/12 00:12:35;;;;;;;42.58;21.58;;;;;;;0.71;77.63;98937.19;344606;28;1018;-69
2022/12/12 00:12:47;;;;;;;40.25;20.90;;;;;;;0.72;77.68;98938.88;344778;28;1197;-69
2022/12/12 00:12:59;;;;;;;40.35;20.98;;;;;;;0.71;77.51;98927.81;344482;28;2013;-69
2022/12/12 00:13:11;;;;;;;41.60;21.40;;;;;;;0.68;77.80;98930.38;344627;28;1262;-69
2022/12/12 00:13:23;;;;;;;41.80;21.27;;;;;;;0.61;78.13;98930.44;344524;28;1151;-69
2022/12/12 00:13:36;;;;;;;41.75;21.27;;;;;;;0.62;77.37;98932.97;344914;28;1051;-72
2022/12/12 00:13:48;;;;;;;40.97;21.35;;;;;;;0.65;77.59;98927.84;344965;28;1120;-72
2022/12/12 00:14:00;;;;;;;43.33;21.92;;;;;;;0.66;77.64;98933.78;344929;28;1066;-72
2022/12/12 00:14:12;;;;;;;43.90;22.00;;;;;;;0.61;77.93;98926.16;344763;28;1742;-72
2022/12/12 00:14:24;;;;;;;44.30;22.55;;;;;;;0.65;78.12;98932.97;344956;28;1184;-72
2022/12/12 00:14:36;;;;;;;43.85;22.50;;;;;;;0.65;77.46;98932.97;344872;28;1221;-72
2022/12/12 00:14:48;;;;;;;43.20;22.10;;;;;;;0.63;78.25;98934.66;344851;28;1046;-72
2022/12/12 00:15:00;;;;;;;42.97;21.70;;;;;;;0.59;77.33;98930.44;344677;28;1803;-69
2022/12/12 00:15:12;;;;;;;43.78;21.77;;;;;;;0.61;78.12;98930.44;343951;28;1572;-69
2022/12/12 00:15:26;;;;;;;43.15;21.48;;;;;;;0.62;77.78;98927.84;344809;28;1208;-70
2022/12/12 00:15:38;;;;;;;42.72;21.38;;;;;;;0.62;77.86;98927.00;345218;28;1126;-69
2022/12/12 00:15:50;;;;;;;43.53;21.38;;;;;;;0.61;77.51;98931.28;345038;28;1050;-70
2022/12/12 00:16:04;;;;;;;43.40;21.90;;;;;;;0.64;77.52;98927.84;345051;28;1070;-70
2022/12/12 00:16:16;;;;;;;42.08;22.13;;;;;;;0.64;77.93;98923.56;344972;28;1233;-69
2022/12/12 00:16:28;;;;;;;41.40;22.05;;;;;;;0.60;77.53;98939.78;345076;28;1186;-72
2022/12/12 00:16:41;;;;;;;42.35;22.00;;;;;;;0.62;78.22;98932.97;345145;28;1997;-72
2022/12/12 00:16:52;;;;;;;43.00;22.25;;;;;;;0.62;77.66;98930.41;344988;28;1337;-71
2022/12/12 00:17:04;;;;;;;42.10;22.23;;;;;;;0.63;77.92;98934.66;345175;28;1153;-72
2022/12/12 00:17:16;;;;;;;42.80;22.10;;;;;;;0.66;77.65;98928.69;344700;28;1358;-72
2022/12/12 00:17:28;;;;;;;41.92;21.73;;;;;;;0.67;78.15;98935.50;344883;28;1248;-72
2022/12/12 00:17:41;;;;;;;42.75;21.38;;;;;;;0.66;77.47;98924.41;344682;28;1075;-71
2022/12/12 00:17:53;;;;;;;43.28;21.40;;;;;;;0.66;77.70;98929.53;344429;28;1246;-71
2022/12/12 00:18:05;;;;;;;43.80;22.13;;;;;;;0.67;77.45;98936.34;344624;28;1058;-71
2022/12/12 00:18:17;;;;;;;43.17;21.98;;;;;;;0.66;77.86;98929.53;344039;28;1341;-70
2022/12/12 00:18:29;;;;;;;42.25;21.33;;;;;;;0.68;78.22;98927.81;343429;28;1188;-69
2022/12/12 00:18:41;;;;;;;41.53;20.70;;;;;;;0.66;77.76;98928.69;344304;28;1066;-69
2022/12/12 00:18:53;;;;;;;40.85;20.65;;;;;;;0.64;77.88;98930.41;344733;28;1080;-70
2022/12/12 00:19:05;;;;;;;40.72;20.83;;;;;;;0.65;78.13;98927.84;344592;28;1044;-69
2022/12/12 00:19:17;;;;;;;40.10;20.77;;;;;;;0.67;78.33;98931.25;344452;28;1407;-72
2022/12/12 00:19:29;;;;;;;41.75;20.77;;;;;;;0.65;77.91;98932.97;343425;28;1297;-72
2022/12/12 00:19:42;;;;;;;41.53;21.00;;;;;;;0.67;78.28;98927.84;343515;28;1063;-72
2022/12/12 00:19:54;;;;;;;41.70;21.55;;;;;;;0.70;78.25;98928.66;342344;28;2296;-71
2022/12/12 00:20:06;;;;;;;39.78;20.95;;;;;;;0.69;78.13;98929.53;343586;28;1090;-71
2022/12/12 00:20:18;;;;;;;39.95;20.83;;;;;;;0.67;78.10;98927.84;343468;28;1449;-71
2022/12/12 00:20:30;;;;;;;41.17;22.00;;;;;;;0.68;77.69;98925.25;343375;28;1012;-72
2022/12/12 00:20:42;;;;;;;44.30;23.00;;;;;;;0.61;78.08;98926.16;343440;28;1067;-69
2022/12/12 00:20:55;;;;;;;43.72;22.63;;;;;;;0.61;78.34;98931.28;341846;28;1319;-69
2022/12/12 00:21:14;;;;;;;43.85;22.25;;;;;;;0.59;77.52;98930.44;342776;28;1255;-70
2022/12/12 00:21:28;;;;;;;41.90;21.88;;;;;;;0.63;77.90;98929.56;343483;28;1051;-69
2022/12/12 00:21:40;;;;;;;41.17;21.42;;;;;;;0.66;78.21;98929.53;343365;28;1174;-69
2022/12/12 00:21:52;;;;;;;40.83;21.33;;;;;;;0.70;78.25;98928.66;343519;28;1256;-70
2022/12/12 00:22:04;;;;;;;41.08;21.50;;;;;;;0.71;77.81;98927.81;343349;28;1059;-70
2022/12/12 00:22:16;;;;;;;42.88;21.60;;;;;;;0.75;78.00;98933.78;343509;28;1333;-72
2022/12/12 00:22:28;;;;;;;42.97;22.25;;;;;;;0.73;78.02;98930.38;344678;28;1046;-72
2022/12/12 00:22:40;;;;;;;43.42;22.67;;;;;;;0.68;77.38;98925.25;346131;28;1190;-72
2022/12/12 00:22:52;;;;;;;42.88;22.33;;;;;;;0.65;78.08;98921.88;346264;28;1031;-72
2022/12/12 00:23:04;;;;;;;41.45;21.58;;;;;;;0.62;78.03;98932.97;344839;28;1110;-72
2022/12/12 00:23:16;;;;;;;41.10;20.95;;;;;;;0.60;77.97;98929.56;345132;28;1089;-71
2022/12/12 00:23:28;;;;;;;42.05;21.27;;;;;;;0.59;77.96;98927.88;345179;28;1054;-70
2022/12/12 00:23:40;;;;;;;43.58;22.10;;;;;;;0.61;77.45;98928.72;345168;28;1270;-70
2022/12/12 00:23:52;;;;;;;43.50;22.35;;;;;;;0.62;77.70;98921.88;345225;28;1199;-70
2022/12/12 00:24:04;;;;;;;43.97;22.00;;;;;;;0.60;77.65;98929.56;345011;28;1165;-70
2022/12/12 00:24:16;;;;;;;43.63;21.48;;;;;;;0.64;78.35;98926.13;345179;28;1034;-70
2022/12/12 00:24:28;;;;;;;43.33;20.98;;;;;;;0.61;77.86;98928.72;343879;28;1055;-70
2022/12/12 00:24:40;;;;;;;42.33;20.70;;;;;;;0.58;77.63;98927.03;343699;28;1155;-70
2022/12/12 00:24:52;;;;;;;41.50;21.75;;;;;;;0.59;77.98;98927.88;343427;28;1172;-70
2022/12/12 00:25:04;;;;;;;41.08;22.27;;;;;;;0.62;78.40;98925.28;343896;28;1776;-70
2022/12/12 00:25:16;;;;;;;42.53;22.15;;;;;;;0.65;77.64;98925.28;344189;28;1811;-72
2022/12/12 00:25:28;;;;;;;43.45;22.20;;;;;;;0.68;78.29;98922.69;344577;28;1106;-72
2022/12/12 00:25:40;;;;;;;43.53;22.08;;;;;;;0.73;77.96;98925.25;344636;28;1913;-72
2022/12/12 00:25:55;;;;;;;42.65;21.33;;;;;;;0.74;77.66;98920.09;344955;28;1043;-72
2022/12/12 00:26:15;;;;;;;41.80;20.77;;;;;;;0.70;77.12;98925.25;343289;28;1063;-72
2022/12/12 00:26:30;;;;;;;39.13;20.60;;;;;;;0.65;77.64;98927.84;341843;28;1048;-70
2022/12/12 00:26:42;;;;;;;39.58;20.55;;;;;;;0.62;77.49;98932.97;342131;28;1083;-70
2022/12/12 00:26:54;;;;;;;39.95;20.67;;;;;;;0.62;77.43;98922.72;342043;28;1022;-70
2022/12/12 00:27:06;;;;;;;38.97;20.80;;;;;;;0.63;77.88;98926.16;341891;28;1737;-70
2022/12/12 00:27:18;;;;;;;39.70;21.02;;;;;;;0.63;77.65;98924.44;342871;28;1267;-70
2022/12/12 00:27:31;;;;;;;40.90;21.40;;;;;;;0.62;77.86;98922.72;344644;28;1057;-70
2022/12/12 00:27:43;;;;;;;41.90;21.52;;;;;;;0.66;78.11;98929.53;343432;28;1128;-70
2022/12/12 00:27:55;;;;;;;42.67;21.50;;;;;;;0.68;77.94;98927.81;343223;28;1181;-70
2022/12/12 00:28:07;;;;;;;43.17;21.98;;;;;;;0.68;77.72;98932.94;343743;28;1245;-70
2022/12/12 00:28:19;;;;;;;42.47;22.13;;;;;;;0.68;77.50;98917.56;343387;28;999;-70
2022/12/12 00:28:31;;;;;;;42.72;22.65;;;;;;;0.71;77.77;98927.81;343832;28;1278;-70
2022/12/12 00:28:43;;;;;;;41.15;22.77;;;;;;;0.72;77.46;98929.50;344802;28;1000;-70
2022/12/12 00:28:57;;;;;;;40.40;22.38;;;;;;;0.74;77.55;98925.22;344669;28;1754;-70
2022/12/12 00:29:09;;;;;;;40.35;21.92;;;;;;;0.74;77.31;98927.78;344742;28;1297;-70
2022/12/12 00:29:21;;;;;;;42.53;22.33;;;;;;;0.77;77.52;98921.81;344304;28;1370;-70
2022/12/12 00:29:33;;;;;;;41.17;22.30;;;;;;;0.79;77.87;98927.78;344672;28;1068;-70
2022/12/12 00:29:51;;;;;;;38.63;21.35;;;;;;;0.77;77.77;98920.09;344620;28;1022;-70
2022/12/12 00:30:04;;;;;;;39.65;20.55;;;;;;;0.77;77.37;98927.78;345344;28;1134;-70
2022/12/12 00:30:16;;;;;;;42.05;20.77;;;;;;;0.78;77.27;98926.91;345894;28;1352;-70
2022/12/12 00:30:28;;;;;;;42.45;21.08;;;;;;;0.79;77.79;98931.19;345195;28;1065;-70
2022/12/12 00:30:40;;;;;;;43.85;21.77;;;;;;;0.78;77.32;98929.47;345074;28;1306;-70
2022/12/12 00:30:52;;;;;;;43.85;21.67;;;;;;;0.76;77.56;98925.22;345053;28;1122;-72
2022/12/12 00:31:04;;;;;;;43.13;21.63;;;;;;;0.75;77.06;98924.38;344477;28;1178;-70
2022/12/12 00:31:17;;;;;;;40.60;21.40;;;;;;;0.73;77.43;98926.09;343659;28;1324;-70
2022/12/12 00:31:29;;;;;;;40.35;20.60;;;;;;;0.74;77.42;98926.94;345053;28;1226;-70
2022/12/12 00:31:41;;;;;;;40.10;20.07;;;;;;;0.72;77.94;98924.38;344963;28;1013;-70
2022/12/12 00:31:53;;;;;;;38.92;20.23;;;;;;;0.75;77.16;98926.94;345020;28;1034;-70
2022/12/12 00:32:05;;;;;;;39.90;21.25;;;;;;;0.75;77.61;98924.38;345047;28;1056;-70
2022/12/12 00:32:17;;;;;;;41.42;21.17;;;;;;;0.74;77.32;98932.91;344906;28;1286;-70
2022/12/12 00:32:29;;;;;;;40.90;20.60;;;;;;;0.72;77.40;98924.38;344960;28;1162;-70
2022/12/12 00:32:41;;;;;;;39.10;20.42;;;;;;;0.74;78.08;98926.94;345079;28;1190;-70
2022/12/12 00:32:53;;;;;;;40.28;21.23;;;;;;;0.74;77.37;98927.78;344984;28;1818;-70
2022/12/12 00:33:05;;;;;;;41.40;21.33;;;;;;;0.76;77.77;98925.22;344952;28;1042;-70
2022/12/12 00:33:18;;;;;;;41.17;21.23;;;;;;;0.76;77.29;98923.50;345152;28;1240;-70
2022/12/12 00:33:30;;;;;;;40.28;20.92;;;;;;;0.78;77.49;98929.47;344794;28;1010;-70
2022/12/12 00:33:43;;;;;;;40.10;21.08;;;;;;;0.80;77.07;98932.03;344126;28;3487;-70
2022/12/12 00:33:56;;;;;;;39.17;20.90;;;;;;;0.81;77.36;98923.50;343762;28;1029;-70
2022/12/12 00:34:08;;;;;;;38.83;21.00;;;;;;;0.79;77.53;98923.50;343493;28;1332;-70
2022/12/12 00:34:19;;;;;;;38.05;20.55;;;;;;;0.82;77.34;98924.34;343749;28;1212;-70
2022/12/12 00:34:31;;;;;;;38.67;20.48;;;;;;;0.81;77.51;98927.78;345211;28;1127;-70
2022/12/12 00:34:43;;;;;;;39.85;21.00;;;;;;;0.83;77.09;98926.06;345062;28;1157;-70
2022/12/12 00:34:56;;;;;;;41.13;20.83;;;;;;;0.84;77.73;98927.75;345132;28;1093;-70
2022/12/12 00:35:08;;;;;;;41.28;20.70;;;;;;;0.85;77.23;98924.34;345113;28;1309;-70
2022/12/12 00:35:20;;;;;;;37.13;19.70;;;;;;;0.88;77.51;98929.44;345123;28;1294;-70
2022/12/12 00:35:32;;;;;;;36.80;19.65;;;;;;;0.86;77.72;98921.75;344850;28;1200;-70
2022/12/12 00:35:47;;;;;;;35.47;19.60;;;;;;;0.82;77.20;98920.06;343226;28;1208;-70
2022/12/12 00:35:59;;;;;;;37.85;20.60;;;;;;;0.84;77.08;98928.59;343620;28;962;-70
2022/12/12 00:36:11;;;;;;;39.35;20.98;;;;;;;0.84;76.94;98931.16;343696;28;1015;-70
2022/12/12 00:36:27;;;;;;;39.53;21.02;;;;;;;0.85;77.10;98921.78;343717;28;1139;-70
2022/12/12 00:36:39;;;;;;;40.63;20.85;;;;;;;0.81;77.17;98927.78;344097;28;1962;-70
2022/12/12 00:36:51;;;;;;;39.90;20.75;;;;;;;0.77;77.51;98927.78;343181;28;1657;-70
2022/12/12 00:37:03;;;;;;;42.00;21.77;;;;;;;0.79;76.83;98927.78;342349;28;1812;-70
2022/12/12 00:37:15;;;;;;;41.92;21.98;;;;;;;0.77;77.81;98926.94;341855;28;1207;-70
2022/12/12 00:37:27;;;;;;;44.55;22.35;;;;;;;0.75;77.17;98921.81;342285;28;1233;-70
2022/12/12 00:37:39;;;;;;;41.33;21.58;;;;;;;0.68;77.75;98925.25;342463;28;1990;-70
2022/12/12 00:37:51;;;;;;;39.85;20.92;;;;;;;0.68;77.47;98930.38;343516;28;1295;-70
2022/12/12 00:38:03;;;;;;;40.25;21.05;;;;;;;0.67;77.81;98928.69;343382;28;1272;-70
2022/12/12 00:38:17;;;;;;;41.72;21.42;;;;;;;0.69;77.95;98924.41;343403;28;1051;-70
2022/12/12 00:38:29;;;;;;;42.50;21.38;;;;;;;0.72;77.55;98929.50;343036;28;1990;-70
2022/12/12 00:38:41;;;;;;;42.00;21.35;;;;;;;0.68;77.39;98932.09;343282;28;1871;-70
2022/12/12 00:38:53;;;;;;;42.40;21.30;;;;;;;0.68;77.28;98927.81;343488;28;1293;-70
2022/12/12 00:39:05;;;;;;;44.00;21.23;;;;;;;0.68;77.94;98927.81;342135;28;1308;-70
2022/12/12 00:39:18;;;;;;;42.42;21.00;;;;;;;0.68;77.70;98921.84;341928;28;1438;-70
2022/12/12 00:39:30;;;;;;;41.10;21.15;;;;;;;0.70;77.32;98928.66;340745;29;1225;-70
2022/12/12 00:39:42;;;;;;;39.60;20.60;;;;;;;0.72;77.11;98924.38;340662;28;1191;-70
2022/12/12 00:39:54;;;;;;;41.67;20.83;;;;;;;0.71;77.17;98938.03;341223;28;1746;-70
2022/12/12 00:40:07;;;;;;;41.63;20.65;;;;;;;0.71;77.57;98927.81;340530;29;1059;-70
2022/12/12 00:40:19;;;;;;;41.50;21.13;;;;;;;0.68;77.87;98932.94;341649;28;1284;-70
2022/12/12 00:40:31;;;;;;;40.97;21.33;;;;;;;0.71;77.98;98927.81;343442;28;1187;-70
2022/12/12 00:40:42;;;;;;;40.28;21.15;;;;;;;0.71;78.03;98927.81;343374;28;1059;-70
2022/12/12 00:40:59;;;;;;;38.83;20.98;;;;;;;0.73;77.61;98930.38;342551;28;1855;-70
2022/12/12 00:41:11;;;;;;;41.05;21.23;;;;;;;0.73;77.70;98935.50;344305;28;1095;-70
2022/12/12 00:41:23;;;;;;;43.28;21.33;;;;;;;0.64;77.21;98926.13;344625;28;1209;-70
2022/12/12 00:41:36;;;;;;;44.58;21.63;;;;;;;0.58;78.07;98932.13;344614;28;1063;-70
2022/12/12 00:41:48;;;;;;;47.15;22.30;;;;;;;0.55;77.88;98928.75;345350;28;1089;-70
2022/12/12 00:42:00;;;;;;;46.13;22.17;;;;;;;0.54;77.84;98930.44;345413;28;2081;-70
2022/12/12 00:42:12;;;;;;;43.30;21.65;;;;;;;0.57;77.65;98934.69;346304;28;1708;-69
2022/12/12 00:42:26;;;;;;;39.92;20.85;;;;;;;0.58;77.92;98931.25;343756;28;1314;-70
2022/12/12 00:42:40;;;;;;;40.55;20.92;;;;;;;0.62;78.43;98932.13;344067;28;1775;-70
2022/12/12 00:42:52;;;;;;;42.42;20.70;;;;;;;0.61;77.74;98931.28;344347;28;2267;-70
2022/12/12 00:43:04;;;;;;;42.97;20.90;;;;;;;0.52;77.56;98936.41;343845;28;1858;-70
2022/12/12 00:43:16;;;;;;;40.22;20.58;;;;;;;0.49;77.88;98931.31;346295;28;1295;-70
2022/12/12 00:43:28;;;;;;;39.60;20.75;;;;;;;0.50;78.08;98933.00;344914;28;1263;-70
2022/12/12 00:43:40;;;;;;;38.85;20.02;;;;;;;0.52;78.07;98932.13;345124;28;1065;-70
2022/12/12 00:43:52;;;;;;;40.42;20.10;;;;;;;0.51;78.53;98933.00;344206;28;1902;-70
2022/12/12 00:44:04;;;;;;;40.38;20.50;;;;;;;0.50;78.12;98933.00;344991;28;1768;-69
2022/12/12 00:44:17;;;;;;;42.28;21.35;;;;;;;0.38;77.93;98934.75;344987;28;1241;-70
2022/12/12 00:44:29;;;;;;;39.67;20.80;;;;;;;0.32;78.58;98937.34;345059;28;1043;-70
2022/12/12 00:44:41;;;;;;;40.47;21.40;;;;;;;0.32;78.41;98929.69;344727;28;1015;-70
2022/12/12 00:44:53;;;;;;;43.38;22.48;;;;;;;0.34;78.61;98933.06;344073;28;1731;-70
2022/12/12 00:45:06;;;;;;;46.60;23.30;;;;;;;0.36;79.14;98935.59;344383;28;1851;-70
2022/12/12 00:45:18;;;;;;;46.70;23.13;;;;;;;0.38;79.08;98932.22;344614;28;1266;-70
2022/12/12 00:45:30;;;;;;;44.08;22.73;;;;;;;0.35;78.59;98934.75;344933;28;1150;-70
2022/12/12 00:45:42;;;;;;;42.28;22.35;;;;;;;0.24;78.75;98935.63;344850;28;1018;-70
2022/12/12 00:45:56;;;;;;;42.75;22.45;;;;;;;0.09;79.49;98931.41;344953;28;1246;-70
2022/12/12 00:46:13;;;;;;;43.97;22.83;;;;;;;0.04;79.53;98928.00;345221;28;1139;-71
2022/12/12 00:46:25;;;;;;;43.58;22.83;;;;;;;-0.04;79.30;98939.13;344761;28;1479;-70
2022/12/12 00:46:38;;;;;;;42.05;22.17;;;;;;;0.04;80.18;98934.00;344958;28;1327;-70
2022/12/12 00:46:50;;;;;;;42.72;22.05;;;;;;;0.11;79.61;98935.66;344961;28;1063;-70
2022/12/12 00:47:02;;;;;;;42.80;21.85;;;;;;;0.14;79.87;98934.81;345007;28;1269;-70
2022/12/12 00:47:14;;;;;;;43.33;22.08;;;;;;;0.14;79.59;98934.81;344984;28;1301;-70
2022/12/12 00:47:26;;;;;;;43.17;21.95;;;;;;;0.19;79.35;98940.78;344503;28;1764;-70
2022/12/12 00:47:38;;;;;;;42.78;22.05;;;;;;;0.21;79.67;98936.50;345117;28;1073;-70
2022/12/12 00:47:50;;;;;;;42.80;22.07;;;;;;;0.14;79.84;98934.81;345394;28;1092;-70
2022/12/12 00:48:02;;;;;;;43.22;21.85;;;;;;;0.12;79.91;98937.38;345152;28;1145;-70
2022/12/12 00:48:14;;;;;;;41.67;21.27;;;;;;;0.03;80.02;98936.53;345345;28;1017;-70
2022/12/12 00:48:27;;;;;;;41.58;21.88;;;;;;;0.07;79.62;98935.69;343252;28;1993;-70
2022/12/12 00:48:39;;;;;;;40.05;21.55;;;;;;;0.01;79.94;98936.53;344280;28;1885;-70
2022/12/12 00:48:55;;;;;;;41.60;21.75;;;;;;;0.04;80.24;98936.56;345034;28;1203;-70
2022/12/12 00:49:07;;;;;;;46.03;22.13;;;;;;;0.04;79.92;98935.69;344870;28;1213;-70
2022/12/12 00:49:19;;;;;;;45.53;22.45;;;;;;;0.06;79.48;98937.41;344852;28;1366;-70
2022/12/12 00:49:31;;;;;;;45.83;22.88;;;;;;;0.08;80.07;98930.59;344272;28;2027;-70
2022/12/12 00:49:43;;;;;;;44.08;22.55;;;;;;;0.08;80.41;98934.81;344026;28;1862;-70
2022/12/12 00:49:55;;;;;;;44.42;22.42;;;;;;;0.06;80.49;98934.84;345056;28;1054;-70
2022/12/12 00:50:08;;;;;;;45.13;22.05;;;;;;;0.08;79.57;98934.81;344988;28;1857;-70
2022/12/12 00:50:20;;;;;;;46.33;22.15;;;;;;;0.09;80.05;98929.72;344842;28;1399;-70
2022/12/12 00:50:33;;;;;;;46.78;22.95;;;;;;;0.09;80.37;98932.25;345015;28;1308;-70
2022/12/12 00:50:45;;;;;;;46.78;23.35;;;;;;;0.13;79.66;98928.00;345044;28;1215;-70
2022/12/12 00:51:06;;;;;;;42.97;22.40;;;;;;;0.18;80.02;98936.50;345094;28;1082;-70
2022/12/12 00:51:20;;;;;;;41.72;21.67;;;;;;;0.20;79.60;98932.22;345057;28;1380;-70
2022/12/12 00:51:32;;;;;;;44.20;22.08;;;;;;;0.23;79.34;98931.41;345214;28;1183;-70
2022/12/12 00:51:44;;;;;;;46.20;22.73;;;;;;;0.24;79.83;98931.38;344554;28;2114;-70
2022/12/12 00:51:56;;;;;;;45.40;23.10;;;;;;;0.25;79.74;98930.53;345019;28;920;-70
2022/12/12 00:52:08;;;;;;;45.50;22.90;;;;;;;0.29;79.88;98932.22;345032;28;1786;-70
2022/12/12 00:52:20;;;;;;;44.85;22.85;;;;;;;0.30;79.61;98936.50;345571;28;1191;-70
2022/12/12 00:52:32;;;;;;;43.05;22.35;;;;;;;0.30;78.88;98931.38;345179;28;1246;-70
2022/12/12 00:52:45;;;;;;;41.65;21.85;;;;;;;0.32;79.16;98934.78;344685;28;1530;-70
2022/12/12 00:52:57;;;;;;;42.15;21.45;;;;;;;0.34;79.02;98939.88;344285;28;1758;-70
2022/12/12 00:53:09;;;;;;;43.80;22.05;;;;;;;0.36;79.33;98936.47;345150;28;1080;-70
2022/12/12 00:53:22;;;;;;;43.47;22.27;;;;;;;0.38;78.61;98939.88;345220;28;1366;-70
2022/12/12 00:53:35;;;;;;;42.08;21.67;;;;;;;0.38;78.70;98932.22;345130;28;1031;-69
2022/12/12 00:53:48;;;;;;;42.78;21.10;;;;;;;0.37;78.60;98933.03;344322;28;1858;-70
2022/12/12 00:54:00;;;;;;;44.08;21.42;;;;;;;0.36;78.59;98933.91;344179;28;1582;-70
2022/12/12 00:54:12;;;;;;;41.33;21.65;;;;;;;0.37;78.61;98933.03;345350;28;1295;-70
2022/12/12 00:54:24;;;;;;;40.60;21.23;;;;;;;0.38;78.22;98933.88;344278;28;1566;-70
2022/12/12 00:54:36;;;;;;;39.58;20.45;;;;;;;0.41;78.34;98938.16;345032;28;1123;-70
2022/12/12 00:54:48;;;;;;;38.67;20.90;;;;;;;0.42;79.12;98937.28;343638;28;1049;-70
2022/12/12 00:55:00;;;;;;;40.85;22.15;;;;;;;0.42;78.46;98937.28;343117;28;1087;-70
2022/12/12 00:55:12;;;;;;;42.83;22.98;;;;;;;0.44;78.33;98938.13;342907;28;1966;-69
2022/12/12 00:55:26;;;;;;;43.55;22.38;;;;;;;0.46;78.30;98931.31;343729;28;1174;-70
2022/12/12 00:55:38;;;;;;;43.53;21.90;;;;;;;0.48;78.79;98938.13;342234;28;1388;-70
2022/12/12 00:55:59;;;;;;;44.50;22.23;;;;;;;0.46;78.18;98936.44;342086;28;1174;-70
2022/12/12 00:56:11;;;;;;;44.65;21.63;;;;;;;0.49;78.09;98936.44;342117;28;1051;-70
2022/12/12 00:56:24;;;;;;;43.33;21.35;;;;;;;0.45;78.76;98939.84;343453;28;1302;-70
2022/12/12 00:56:36;;;;;;;43.53;21.85;;;;;;;0.41;78.78;98944.13;344949;28;1019;-70
2022/12/12 00:56:48;;;;;;;43.72;21.48;;;;;;;0.38;78.33;98945.00;344765;28;1019;-70
2022/12/12 00:57:00;;;;;;;45.40;21.83;;;;;;;0.41;78.13;98935.63;344402;28;1744;-70
2022/12/12 00:57:12;;;;;;;44.08;21.33;;;;;;;0.38;78.39;98934.75;344747;28;1546;-70
2022/12/12 00:57:24;;;;;;;39.97;20.45;;;;;;;0.42;78.85;98939.84;344895;28;1296;-70
2022/12/12 00:57:36;;;;;;;40.50;20.77;;;;;;;0.38;78.37;98933.88;344987;28;1136;-70
2022/12/12 00:57:48;;;;;;;40.53;20.75;;;;;;;0.36;78.57;98940.72;344872;28;1075;-70
2022/12/12 00:58:00;;;;;;;41.42;21.02;;;;;;;0.37;79.00;98943.28;344242;28;1497;-70
2022/12/12 00:58:12;;;;;;;43.95;21.75;;;;;;;0.37;78.14;98938.16;345132;28;1777;-70
2022/12/12 00:58:25;;;;;;;43.70;21.50;;;;;;;0.33;78.60;98941.59;344669;28;1353;-70
2022/12/12 00:58:37;;;;;;;43.90;21.13;;;;;;;0.35;78.75;98934.75;343472;28;1286;-70
2022/12/12 00:58:50;;;;;;;43.15;20.83;;;;;;;0.34;78.19;98935.63;343498;28;1708;-69
2022/12/12 00:59:03;;;;;;;42.90;20.52;;;;;;;0.37;78.43;98938.16;344846;28;1625;-70
2022/12/12 00:59:15;;;;;;;43.03;21.27;;;;;;;0.31;78.90;98935.63;344744;28;2502;-70
2022/12/12 00:59:27;;;;;;;41.75;21.65;;;;;;;0.32;78.83;98934.78;343525;28;1145;-70
2022/12/12 00:59:39;;;;;;;40.53;21.23;;;;;;;0.29;78.72;98932.22;343759;28;1184;-70
2022/12/12 00:59:50;;;;;;;39.42;20.75;;;;;;;0.32;78.36;98939.91;343826;28;1245;-70